Emmagracht — PDYX — position and weather

sailwx.info

Track history (hours):
 
Tides and Currents Weather Stations Pressure Air Temp Water Temp Dewpoint Dewpoint Depression Visibility Wind Speed Wind Dir Waves Ship Positions

Emmagracht

Last reported at 2018-Jan-10 14:42 UTC. Time now 2018-Jan-18 17:59 UTC.
Position N 45°45' W 073°24'.
Warning: this ship's position is 8 days out of date.

Length 136 m; beam 19 m; draft 9 m.

Type: Cargo ship. MMSI: 246308000.

Date/timePositionNaut miles runAvg speedWind from/ knotsBaromVisibWave heightAir tempDewpointWater temp
2018-Jan-10 14:42N 45°45' W 073°24'16 0.9
2018-Jan-09 21:15N 45°30' W 073°31'1 3.2
2018-Jan-09 21:00N 45°29' W 073°31'3 6.6
2018-Jan-09 20:30N 45°26' W 073°30'3 5.7
2018-Jan-09 20:00N 45°24' W 073°34'0 0.9
2018-Jan-09 19:30N 45°24' W 073°35'3 5.4
2018-Jan-09 19:00N 45°24' W 073°38'3 5.6
2018-Jan-09 18:30N 45°25' W 073°42'611.4
2018-Jan-09 18:00N 45°22' W 073°50'5 9.2
2018-Jan-09 17:30N 45°19' W 073°55'0 0.0
2018-Jan-09 17:00N 45°19' W 073°55'0 0.0
2018-Jan-09 16:30N 45°19' W 073°55'0 0.0
2018-Jan-09 16:00N 45°19' W 073°55'0 0.0
2018-Jan-09 15:30N 45°19' W 073°55'0 0.0
2018-Jan-09 15:00N 45°19' W 073°55'0 0.0
2018-Jan-09 14:30N 45°19' W 073°55'0 0.0
2018-Jan-09 14:00N 45°19' W 073°55'0 0.0
2018-Jan-09 13:30N 45°19' W 073°55'0 0.0
2018-Jan-09 13:00N 45°19' W 073°55'0 0.0
2018-Jan-09 12:30N 45°19' W 073°55'0 0.0
2018-Jan-09 12:00N 45°19' W 073°55'0 0.0
2018-Jan-09 11:30N 45°19' W 073°55'0 0.0
2018-Jan-09 11:00N 45°19' W 073°55'0 0.0
2018-Jan-09 10:30N 45°19' W 073°55'0 0.0
2018-Jan-09 10:00N 45°19' W 073°55'0 0.0
2018-Jan-09 09:30N 45°19' W 073°55'0 0.0
2018-Jan-09 09:00N 45°19' W 073°55'0 0.0
2018-Jan-09 08:27N 45°19' W 073°55'0 0.0
2018-Jan-09 07:57N 45°19' W 073°55'0 0.0
2018-Jan-09 07:27N 45°19' W 073°55'0 0.0
2018-Jan-09 06:57N 45°19' W 073°55'0 0.0
2018-Jan-09 06:27N 45°19' W 073°55'0 0.0
2018-Jan-09 05:57N 45°19' W 073°55'0 0.0
2018-Jan-09 05:27N 45°19' W 073°55'0 0.0
2018-Jan-09 04:57N 45°19' W 073°55'0 0.0
2018-Jan-09 04:27N 45°19' W 073°55'0 0.0
2018-Jan-09 03:57N 45°19' W 073°55'0 0.4
2018-Jan-09 03:31N 45°19' W 073°55'0 0.3
2018-Jan-09 03:01N 45°19' W 073°55'0 0.0
2018-Jan-09 02:31N 45°19' W 073°55'0 0.0
2018-Jan-09 02:01N 45°19' W 073°55'0 0.9
2018-Jan-09 01:31N 45°19' W 073°55'0 0.8
2018-Jan-09 01:01N 45°18' W 073°56'0 0.6
2018-Jan-09 00:31N 45°18' W 073°56'0 0.0
2018-Jan-09 00:01N 45°18' W 073°56'0 0.5
2018-Jan-08 23:30N 45°18' W 073°56'0 0.0
2018-Jan-08 23:00N 45°18' W 073°56'0 0.0
2018-Jan-08 22:30N 45°18' W 073°56'0 0.0
2018-Jan-08 22:00N 45°18' W 073°56'0 0.0
2018-Jan-08 21:26N 45°18' W 073°56'0 0.5
2018-Jan-08 21:00N 45°17' W 073°56'1 2.2
2018-Jan-08 20:30N 45°16' W 073°57'1 1.3
2018-Jan-08 20:00N 45°16' W 073°57'3 5.6
2018-Jan-08 19:30N 45°14' W 074°00'4 6.9
2018-Jan-08 18:52N 45°13' W 074°06'3 8.5
2018-Jan-08 18:28N 45°14' W 074°11'  
Track history (hours):
 
Tides and Currents Weather Stations Pressure Air Temp Water Temp Dewpoint Dewpoint Depression Visibility Wind Speed Wind Dir Waves Ship Positions

Emmagracht

Last reported at 2018-Jan-10 14:42 UTC. Time now 2018-Jan-18 17:59 UTC.
Position N 45°45' W 073°24'.
Warning: this ship's position is 8 days out of date.

Length 136 m; beam 19 m; draft 9 m.

Type: Cargo ship. MMSI: 246308000.

Date/timePositionNaut miles runAvg speedWind from/ knotsBaromVisibWave heightAir tempDewpointWater temp
2018-Jan-10 14:42N 45°45' W 073°24'16 0.9
2018-Jan-09 21:15N 45°30' W 073°31'1 3.2
2018-Jan-09 21:00N 45°29' W 073°31'3 6.6
2018-Jan-09 20:30N 45°26' W 073°30'3 5.7
2018-Jan-09 20:00N 45°24' W 073°34'0 0.9
2018-Jan-09 19:30N 45°24' W 073°35'3 5.4
2018-Jan-09 19:00N 45°24' W 073°38'3 5.6
2018-Jan-09 18:30N 45°25' W 073°42'611.4
2018-Jan-09 18:00N 45°22' W 073°50'5 9.2
2018-Jan-09 17:30N 45°19' W 073°55'0 0.0
2018-Jan-09 17:00N 45°19' W 073°55'0 0.0
2018-Jan-09 16:30N 45°19' W 073°55'0 0.0
2018-Jan-09 16:00N 45°19' W 073°55'0 0.0
2018-Jan-09 15:30N 45°19' W 073°55'0 0.0
2018-Jan-09 15:00N 45°19' W 073°55'0 0.0
2018-Jan-09 14:30N 45°19' W 073°55'0 0.0
2018-Jan-09 14:00N 45°19' W 073°55'0 0.0
2018-Jan-09 13:30N 45°19' W 073°55'0 0.0
2018-Jan-09 13:00N 45°19' W 073°55'0 0.0
2018-Jan-09 12:30N 45°19' W 073°55'0 0.0
2018-Jan-09 12:00N 45°19' W 073°55'0 0.0
2018-Jan-09 11:30N 45°19' W 073°55'0 0.0
2018-Jan-09 11:00N 45°19' W 073°55'0 0.0
2018-Jan-09 10:30N 45°19' W 073°55'0 0.0
2018-Jan-09 10:00N 45°19' W 073°55'0 0.0
2018-Jan-09 09:30N 45°19' W 073°55'0 0.0
2018-Jan-09 09:00N 45°19' W 073°55'0 0.0
2018-Jan-09 08:27N 45°19' W 073°55'0 0.0
2018-Jan-09 07:57N 45°19' W 073°55'0 0.0
2018-Jan-09 07:27N 45°19' W 073°55'0 0.0
2018-Jan-09 06:57N 45°19' W 073°55'0 0.0
2018-Jan-09 06:27N 45°19' W 073°55'0 0.0
2018-Jan-09 05:57N 45°19' W 073°55'0 0.0
2018-Jan-09 05:27N 45°19' W 073°55'0 0.0
2018-Jan-09 04:57N 45°19' W 073°55'0 0.0
2018-Jan-09 04:27N 45°19' W 073°55'0 0.0
2018-Jan-09 03:57N 45°19' W 073°55'0 0.4
2018-Jan-09 03:31N 45°19' W 073°55'0 0.3
2018-Jan-09 03:01N 45°19' W 073°55'0 0.0
2018-Jan-09 02:31N 45°19' W 073°55'0 0.0
2018-Jan-09 02:01N 45°19' W 073°55'0 0.9
2018-Jan-09 01:31N 45°19' W 073°55'0 0.8
2018-Jan-09 01:01N 45°18' W 073°56'0 0.6
2018-Jan-09 00:31N 45°18' W 073°56'0 0.0
2018-Jan-09 00:01N 45°18' W 073°56'0 0.5
2018-Jan-08 23:30N 45°18' W 073°56'0 0.0
2018-Jan-08 23:00N 45°18' W 073°56'0 0.0
2018-Jan-08 22:30N 45°18' W 073°56'0 0.0
2018-Jan-08 22:00N 45°18' W 073°56'0 0.0
2018-Jan-08 21:26N 45°18' W 073°56'0 0.5
2018-Jan-08 21:00N 45°17' W 073°56'1 2.2
2018-Jan-08 20:30N 45°16' W 073°57'1 1.3
2018-Jan-08 20:00N 45°16' W 073°57'3 5.6
2018-Jan-08 19:30N 45°14' W 074°00'4 6.9
2018-Jan-08 18:52N 45°13' W 074°06'3 8.5
2018-Jan-08 18:28N 45°14' W 074°11'  

Dump ship's entire track history